createdAt,value
2019-02-28T00:01:19.969Z,100811.00
2019-02-28T00:03:47.898Z,100792.00
2019-02-28T00:06:15.870Z,100797.00
2019-02-28T00:08:43.763Z,100794.00
2019-02-28T00:11:11.731Z,100788.00
2019-02-28T00:13:39.942Z,100788.00
2019-02-28T00:16:07.998Z,100792.00
2019-02-28T00:18:36.463Z,100793.00
2019-02-28T00:21:07.007Z,100791.00
2019-02-28T00:23:34.410Z,100794.00
2019-02-28T00:26:02.536Z,100785.00
2019-02-28T00:28:30.616Z,100785.00
2019-02-28T00:30:59.616Z,100778.00
2019-02-28T00:33:31.030Z,100776.00
2019-02-28T00:35:59.526Z,100771.00
2019-02-28T00:38:30.610Z,100760.00
2019-02-28T00:40:58.573Z,100762.00
2019-02-28T00:43:27.777Z,100764.00
2019-02-28T00:45:58.539Z,100767.00
2019-02-28T00:48:26.721Z,100761.00
2019-02-28T00:50:54.618Z,100752.00
2019-02-28T00:53:22.974Z,100758.00
2019-02-28T00:55:51.140Z,100756.00
2019-02-28T00:58:19.179Z,100748.00
2019-02-28T01:00:48.202Z,100742.00
2019-02-28T01:03:16.198Z,100749.00
2019-02-28T01:05:44.148Z,100741.00
2019-02-28T01:08:12.318Z,100737.00
2019-02-28T01:10:40.658Z,100734.00
2019-02-28T01:13:08.713Z,100727.00
2019-02-28T01:15:36.659Z,100730.00
2019-02-28T01:18:04.620Z,100723.00
2019-02-28T01:20:32.509Z,100730.00
2019-02-28T01:23:00.466Z,100731.00
2019-02-28T01:25:28.458Z,100722.00
2019-02-28T01:27:56.397Z,100725.00
2019-02-28T01:30:24.338Z,100727.00
2019-02-28T01:32:52.234Z,100726.00
2019-02-28T01:35:20.221Z,100725.00
2019-02-28T01:37:48.164Z,100713.00
2019-02-28T01:40:16.157Z,100725.00
2019-02-28T01:42:43.988Z,100718.00
2019-02-28T01:45:12.105Z,100715.00
2019-02-28T01:47:40.062Z,100705.00
2019-02-28T01:50:08.329Z,100692.00
2019-02-28T01:52:36.299Z,100693.00
2019-02-28T01:55:05.062Z,100691.00
2019-02-28T01:57:33.243Z,100693.00
2019-02-28T02:00:01.152Z,100683.00
2019-02-28T02:02:29.659Z,100675.00
2019-02-28T02:04:57.789Z,100671.00
2019-02-28T02:07:25.835Z,100672.00
2019-02-28T02:09:53.918Z,100665.00
2019-02-28T02:12:22.911Z,100665.00
2019-02-28T02:14:50.822Z,100664.00
2019-02-28T02:17:18.862Z,100658.00
2019-02-28T02:19:49.404Z,100654.00
2019-02-28T02:22:16.640Z,100656.00
2019-02-28T02:24:44.528Z,100650.00
2019-02-28T02:27:12.870Z,100646.00
2019-02-28T02:29:40.933Z,100644.00
2019-02-28T02:32:08.971Z,100644.00
2019-02-28T02:34:37.031Z,100639.00
2019-02-28T02:37:05.814Z,100649.00
2019-02-28T02:39:34.795Z,100644.00
2019-02-28T02:42:09.766Z,100638.00
2019-02-28T02:44:32.571Z,100634.00
2019-02-28T02:47:00.521Z,100629.00
2019-02-28T02:49:29.473Z,100639.00
2019-02-28T02:51:57.409Z,100632.00
2019-02-28T02:54:25.399Z,100630.00
2019-02-28T02:56:53.331Z,100628.00
2019-02-28T02:59:21.221Z,100626.00
2019-02-28T03:01:49.168Z,100625.00
2019-02-28T03:04:22.988Z,100621.00
2019-02-28T03:06:47.010Z,100613.00
2019-02-28T03:09:14.950Z,100600.00
2019-02-28T03:11:43.077Z,100607.00
2019-02-28T03:14:11.452Z,100608.00
2019-02-28T03:16:39.813Z,100609.00
2019-02-28T03:19:09.309Z,100608.00
2019-02-28T03:21:37.553Z,100609.00
2019-02-28T03:24:05.850Z,100605.00
2019-02-28T03:26:34.081Z,100601.00
2019-02-28T03:29:07.528Z,100596.00
2019-02-28T03:31:32.280Z,100596.00
2019-02-28T03:34:10.358Z,100596.00
2019-02-28T03:36:31.476Z,100589.00
2019-02-28T03:39:00.401Z,100590.00
2019-02-28T03:41:28.374Z,100590.00
2019-02-28T03:43:56.334Z,100593.00
2019-02-28T03:46:24.825Z,100589.00
2019-02-28T03:48:52.732Z,100588.00
2019-02-28T03:51:21.187Z,100579.00
2019-02-28T03:53:55.579Z,100587.00
2019-02-28T03:56:19.004Z,100577.00
2019-02-28T03:58:47.239Z,100573.00
2019-02-28T04:01:15.148Z,100575.00
2019-02-28T04:03:44.036Z,100567.00
2019-02-28T04:06:12.192Z,100575.00
2019-02-28T04:08:40.195Z,100563.00
2019-02-28T04:11:08.130Z,100557.00
2019-02-28T04:13:36.308Z,100561.00
2019-02-28T04:16:09.225Z,100560.00
2019-02-28T04:18:34.135Z,100559.00
2019-02-28T04:21:03.850Z,100562.00
2019-02-28T04:23:36.163Z,100565.00
2019-02-28T04:26:01.686Z,100565.00
2019-02-28T04:28:30.103Z,100563.00
2019-02-28T04:30:58.154Z,100568.00
2019-02-28T04:33:26.119Z,100571.00
2019-02-28T04:35:56.909Z,100565.00
2019-02-28T04:38:25.279Z,100567.00
2019-02-28T04:41:00.625Z,100561.00
2019-02-28T04:43:28.647Z,100564.00
2019-02-28T04:45:57.616Z,100550.00
2019-02-28T04:48:26.853Z,100553.00
2019-02-28T04:50:54.885Z,100555.00
2019-02-28T04:53:22.855Z,100557.00
2019-02-28T04:55:50.928Z,100561.00
2019-02-28T04:58:18.857Z,100547.00
2019-02-28T05:00:46.891Z,100553.00
2019-02-28T05:03:14.778Z,100552.00
2019-02-28T05:05:46.525Z,100560.00
2019-02-28T05:08:12.658Z,100553.00
2019-02-28T05:10:43.489Z,100546.00
2019-02-28T05:13:14.147Z,100553.00
2019-02-28T05:15:41.555Z,100559.00
2019-02-28T05:18:09.658Z,100549.00
2019-02-28T05:20:37.567Z,100559.00
2019-02-28T05:23:05.587Z,100561.00
2019-02-28T05:25:34.475Z,100547.00
2019-02-28T05:28:06.741Z,100559.00
2019-02-28T05:30:33.502Z,100562.00
2019-02-28T05:33:01.479Z,100561.00
2019-02-28T05:35:29.688Z,100557.00
2019-02-28T05:37:57.731Z,100555.00
2019-02-28T05:40:25.750Z,100561.00
2019-02-28T05:42:54.695Z,100559.00
2019-02-28T05:45:23.890Z,100555.00
2019-02-28T05:47:51.920Z,100561.00
2019-02-28T05:50:19.814Z,100561.00
2019-02-28T05:52:47.976Z,100556.00
2019-02-28T05:55:15.956Z,100567.00
2019-02-28T05:57:45.031Z,100560.00
2019-02-28T06:00:14.580Z,100568.00
2019-02-28T06:02:43.348Z,100575.00
2019-02-28T06:05:11.829Z,100582.00
2019-02-28T06:07:40.640Z,100589.00
2019-02-28T06:10:09.205Z,100582.00
2019-02-28T06:12:37.147Z,100587.00
2019-02-28T06:15:06.914Z,100596.00
2019-02-28T06:17:35.224Z,100598.00
2019-02-28T06:20:04.219Z,100596.00
2019-02-28T06:22:36.221Z,100599.00
2019-02-28T06:25:03.014Z,100582.00
2019-02-28T06:27:41.190Z,100596.00
2019-02-28T06:30:01.980Z,100589.00
2019-02-28T06:32:30.638Z,100592.00
2019-02-28T06:34:59.935Z,100589.00
2019-02-28T06:37:28.021Z,100598.00
2019-02-28T06:39:58.581Z,100596.00
2019-02-28T06:42:25.834Z,100601.00
2019-02-28T06:44:53.817Z,100590.00
2019-02-28T06:47:21.837Z,100595.00
2019-02-28T06:49:49.841Z,100591.00
2019-02-28T06:52:18.751Z,100592.00
2019-02-28T06:54:46.770Z,100601.00
2019-02-28T06:57:14.753Z,100595.00
2019-02-28T06:59:42.722Z,100603.00
2019-02-28T07:02:10.724Z,100608.00
2019-02-28T07:04:38.762Z,100604.00
2019-02-28T07:07:07.422Z,100604.00
2019-02-28T07:09:37.274Z,100601.00
2019-02-28T07:12:05.165Z,100608.00
2019-02-28T07:14:33.298Z,100608.00
2019-02-28T07:17:01.638Z,100613.00
2019-02-28T07:19:29.645Z,100617.00
2019-02-28T07:21:57.679Z,100619.00
2019-02-28T07:24:25.660Z,100617.00
2019-02-28T07:26:53.664Z,100615.00
2019-02-28T07:29:21.773Z,100627.00
2019-02-28T07:31:49.844Z,100631.00
2019-02-28T07:34:21.935Z,100635.00
2019-02-28T07:36:47.878Z,100632.00
2019-02-28T07:39:15.786Z,100626.00
2019-02-28T07:41:43.815Z,100622.00
2019-02-28T07:44:11.791Z,100613.00
2019-02-28T07:46:42.264Z,100614.00
2019-02-28T07:49:09.926Z,100612.00
2019-02-28T07:51:38.369Z,100618.00
2019-02-28T07:54:06.339Z,100612.00
2019-02-28T07:56:42.714Z,100617.00
2019-02-28T07:59:06.433Z,100612.00
2019-02-28T08:01:34.394Z,100607.00
2019-02-28T08:04:02.342Z,100613.00
2019-02-28T08:06:30.373Z,100619.00
2019-02-28T08:08:58.460Z,100610.00
2019-02-28T08:11:26.536Z,100609.00
2019-02-28T08:13:55.524Z,100605.00
2019-02-28T08:16:23.574Z,100602.00
2019-02-28T08:18:52.468Z,100607.00
2019-02-28T08:21:20.559Z,100607.00
2019-02-28T08:23:48.617Z,100608.00
2019-02-28T08:26:18.860Z,100609.00
2019-02-28T08:28:46.761Z,100596.00
2019-02-28T08:31:14.722Z,100594.00
2019-02-28T08:33:42.769Z,100587.00
2019-02-28T08:36:12.593Z,100592.00
2019-02-28T08:38:43.688Z,100573.00
2019-02-28T08:41:11.499Z,100590.00
2019-02-28T08:43:39.556Z,100598.00
2019-02-28T08:46:10.805Z,100589.00
2019-02-28T08:48:37.395Z,100588.00
2019-02-28T08:51:05.965Z,100589.00
2019-02-28T08:53:33.979Z,100593.00
2019-02-28T08:56:02.010Z,100601.00
2019-02-28T08:58:29.949Z,100595.00
2019-02-28T09:00:57.938Z,100589.00
2019-02-28T09:03:27.444Z,100596.00
2019-02-28T09:06:00.944Z,100593.00
2019-02-28T09:08:29.012Z,100598.00
2019-02-28T09:10:56.979Z,100599.00
2019-02-28T09:13:25.232Z,100583.00
2019-02-28T09:15:54.221Z,100568.00
2019-02-28T09:18:22.241Z,100573.00
2019-02-28T09:20:50.983Z,100562.00
2019-02-28T09:23:18.956Z,100564.00
2019-02-28T09:25:47.201Z,100573.00
2019-02-28T09:28:15.298Z,100575.00
2019-02-28T09:30:43.311Z,100567.00
2019-02-28T09:33:11.321Z,100565.00
2019-02-28T09:35:45.321Z,100574.00
2019-02-28T09:38:13.363Z,100570.00
2019-02-28T09:40:41.162Z,100561.00
2019-02-28T09:43:09.130Z,100564.00
2019-02-28T09:45:39.852Z,100555.00
2019-02-28T09:48:08.503Z,100556.00
2019-02-28T09:50:36.840Z,100555.00
2019-02-28T09:53:05.292Z,100551.00
2019-02-28T09:55:35.455Z,100557.00
2019-02-28T09:58:04.712Z,100546.00
2019-02-28T10:00:32.990Z,100556.00
2019-02-28T10:03:01.532Z,100556.00
2019-02-28T10:05:30.677Z,100540.00
2019-02-28T10:08:02.793Z,100541.00
2019-02-28T10:10:29.902Z,100540.00
2019-02-28T10:12:57.986Z,100541.00
2019-02-28T10:15:26.065Z,100540.00
2019-02-28T10:17:55.668Z,100549.00
2019-02-28T10:20:26.955Z,100539.00
2019-02-28T10:22:57.241Z,100532.00
2019-02-28T10:25:26.386Z,100537.00
2019-02-28T10:27:55.114Z,100531.00
2019-02-28T10:30:31.290Z,100524.00
2019-02-28T10:32:54.013Z,100532.00
2019-02-28T10:35:22.629Z,100522.00
2019-02-28T10:37:50.857Z,100526.00
2019-02-28T10:40:21.829Z,100520.00
2019-02-28T10:42:50.676Z,100528.00
2019-02-28T10:45:20.292Z,100523.00
2019-02-28T10:47:49.409Z,100520.00
2019-02-28T10:50:20.155Z,100519.00
2019-02-28T10:52:48.479Z,100506.00
2019-02-28T10:55:19.476Z,100501.00
2019-02-28T10:57:47.941Z,100500.00
2019-02-28T11:00:29.335Z,100508.00
2019-02-28T11:02:58.705Z,100507.00
2019-02-28T11:05:29.861Z,100513.00
2019-02-28T11:07:58.742Z,100514.00
2019-02-28T11:10:34.810Z,100505.00
2019-02-28T11:13:01.647Z,100493.00
2019-02-28T11:15:31.009Z,100497.00
2019-02-28T11:17:59.167Z,100495.00
2019-02-28T11:20:27.647Z,100498.00
2019-02-28T11:22:57.867Z,100490.00
2019-02-28T11:25:26.310Z,100498.00
2019-02-28T11:27:54.724Z,100498.00
2019-02-28T11:30:23.610Z,100495.00
2019-02-28T11:32:51.669Z,100494.00
2019-02-28T11:35:23.229Z,100480.00
2019-02-28T11:37:51.746Z,100494.00
2019-02-28T11:40:21.576Z,100498.00
2019-02-28T11:42:49.482Z,100488.00
2019-02-28T11:45:22.009Z,100485.00
2019-02-28T11:47:52.760Z,100478.00
2019-02-28T11:50:20.799Z,100486.00
2019-02-28T11:52:50.055Z,100471.00
2019-02-28T11:55:20.376Z,100471.00
2019-02-28T11:57:48.450Z,100476.00
2019-02-28T12:00:20.659Z,100483.00
2019-02-28T12:02:53.284Z,100478.00
2019-02-28T12:05:18.984Z,100464.00
2019-02-28T12:07:47.190Z,100460.00
2019-02-28T12:10:15.168Z,100461.00
2019-02-28T12:12:44.589Z,100454.00
2019-02-28T12:15:14.556Z,100442.00
2019-02-28T12:17:42.772Z,100445.00
2019-02-28T12:20:12.261Z,100442.00
2019-02-28T12:22:40.214Z,100434.00
2019-02-28T12:25:10.694Z,100431.00
2019-02-28T12:27:38.738Z,100433.00
2019-02-28T12:30:11.378Z,100429.00
2019-02-28T12:32:40.272Z,100426.00
2019-02-28T12:35:09.175Z,100418.00
2019-02-28T12:37:39.107Z,100416.00
2019-02-28T12:40:11.156Z,100402.00
2019-02-28T12:42:39.738Z,100409.00
2019-02-28T12:45:15.032Z,100420.00
2019-02-28T12:47:43.020Z,100401.00
2019-02-28T12:50:11.346Z,100411.00
2019-02-28T12:52:39.446Z,100409.00
2019-02-28T12:55:10.510Z,100398.00
2019-02-28T12:57:38.493Z,100399.00
2019-02-28T13:00:13.798Z,100393.00
2019-02-28T13:02:43.519Z,100392.00
2019-02-28T13:05:14.948Z,100384.00
2019-02-28T13:07:41.911Z,100392.00
2019-02-28T13:10:11.571Z,100384.00
2019-02-28T13:12:39.541Z,100375.00
2019-02-28T13:15:09.378Z,100375.00
2019-02-28T13:17:37.362Z,100373.00
2019-02-28T13:20:09.675Z,100372.00
2019-02-28T13:22:37.868Z,100376.00
2019-02-28T13:25:07.687Z,100374.00
2019-02-28T13:27:35.679Z,100366.00
2019-02-28T13:30:10.572Z,100370.00
2019-02-28T13:32:38.098Z,100366.00
2019-02-28T13:35:09.319Z,100357.00
2019-02-28T13:37:37.558Z,100353.00
2019-02-28T13:40:09.493Z,100352.00
2019-02-28T13:42:40.496Z,100364.00
2019-02-28T13:45:14.769Z,100326.00
2019-02-28T13:47:42.063Z,100344.00
2019-02-28T13:50:17.417Z,100341.00
2019-02-28T13:52:45.450Z,100347.00
2019-02-28T13:55:14.196Z,100316.00
2019-02-28T13:57:45.726Z,100330.00
2019-02-28T14:00:22.501Z,100322.00
2019-02-28T14:02:53.063Z,100325.00
2019-02-28T14:05:21.272Z,100312.00
2019-02-28T14:07:49.425Z,100315.00
2019-02-28T14:10:18.835Z,100316.00
2019-02-28T14:12:48.206Z,100313.00
2019-02-28T14:15:19.580Z,100310.00
2019-02-28T14:17:47.686Z,100309.00
2019-02-28T14:20:15.894Z,100316.00
2019-02-28T14:22:45.823Z,100298.00
2019-02-28T14:25:14.179Z,100312.00
2019-02-28T14:27:42.476Z,100316.00
2019-02-28T14:30:12.127Z,100297.00
2019-02-28T14:32:42.361Z,100297.00
2019-02-28T14:35:11.549Z,100291.00
2019-02-28T14:37:39.938Z,100288.00
2019-02-28T14:40:10.791Z,100286.00
2019-02-28T14:42:40.849Z,100288.00
2019-02-28T14:45:11.543Z,100284.00
2019-02-28T14:47:40.402Z,100287.00
2019-02-28T14:50:09.838Z,100280.00
2019-02-28T14:52:39.331Z,100279.00
2019-02-28T14:55:11.173Z,100277.00
2019-02-28T14:57:39.309Z,100291.00
2019-02-28T15:00:14.467Z,100293.00
2019-02-28T15:02:42.686Z,100284.00
2019-02-28T15:05:11.235Z,100280.00
2019-02-28T15:07:39.749Z,100284.00
2019-02-28T15:10:12.230Z,100278.00
2019-02-28T15:12:41.237Z,100288.00
2019-02-28T15:15:14.789Z,100293.00
2019-02-28T15:17:43.054Z,100292.00
2019-02-28T15:20:13.480Z,100298.00
2019-02-28T15:22:41.598Z,100300.00
2019-02-28T15:25:11.313Z,100300.00
2019-02-28T15:27:39.887Z,100309.00
2019-02-28T15:30:12.433Z,100300.00
2019-02-28T15:32:40.552Z,100308.00
2019-02-28T15:35:12.506Z,100309.00
2019-02-28T15:37:41.593Z,100310.00
2019-02-28T15:40:13.176Z,100312.00
2019-02-28T15:42:43.009Z,100315.00
2019-02-28T15:45:11.943Z,100263.00
2019-02-28T15:47:40.298Z,100307.00
2019-02-28T15:50:13.592Z,100313.00
2019-02-28T15:52:42.324Z,100309.00
2019-02-28T15:55:11.456Z,100316.00
2019-02-28T15:57:39.751Z,100299.00
2019-02-28T16:00:15.833Z,100298.00
2019-02-28T16:02:43.882Z,100294.00
2019-02-28T16:05:12.426Z,100290.00
2019-02-28T16:07:41.102Z,100289.00
2019-02-28T16:10:11.722Z,100287.00
2019-02-28T16:12:39.706Z,100295.00
2019-02-28T16:15:11.994Z,100290.00
2019-02-28T16:17:39.316Z,100292.00
2019-02-28T16:20:08.423Z,100298.00
2019-02-28T16:22:36.707Z,100296.00
2019-02-28T16:25:07.410Z,100303.00
2019-02-28T16:27:35.517Z,100306.00
2019-02-28T16:30:04.907Z,100318.00
2019-02-28T16:32:33.490Z,100317.00
2019-02-28T16:35:01.551Z,100312.00
2019-02-28T16:37:32.380Z,100316.00
2019-02-28T16:40:00.034Z,100316.00
2019-02-28T16:42:27.994Z,100319.00
2019-02-28T16:44:56.068Z,100330.00
2019-02-28T16:47:25.160Z,100337.00
2019-02-28T16:49:53.174Z,100335.00
2019-02-28T16:52:21.211Z,100343.00
2019-02-28T16:54:49.278Z,100360.00
2019-02-28T16:57:17.361Z,100392.00
2019-02-28T16:59:45.446Z,100369.00
2019-02-28T17:02:13.579Z,100356.00
2019-02-28T17:04:41.567Z,100378.00
2019-02-28T17:07:10.249Z,100400.00
2019-02-28T17:09:41.457Z,100415.00
2019-02-28T17:12:27.151Z,100433.00
2019-02-28T17:14:54.909Z,100444.00
2019-02-28T17:17:43.541Z,100440.00
2019-02-28T17:20:12.539Z,100445.00
2019-02-28T17:22:41.922Z,100443.00
2019-02-28T17:25:09.989Z,100451.00
2019-02-28T17:27:48.496Z,100448.00
2019-02-28T17:30:38.775Z,100467.00
2019-02-28T17:33:08.987Z,100468.00
2019-02-28T17:35:37.144Z,100465.00
2019-02-28T17:38:05.271Z,100466.00
2019-02-28T17:40:33.431Z,100479.00
2019-02-28T17:43:01.437Z,100479.00
2019-02-28T17:45:33.739Z,100482.00
2019-02-28T17:49:01.733Z,100486.00
2019-02-28T17:51:55.393Z,100470.00
2019-02-28T17:55:53.507Z,100481.00
2019-02-28T17:59:31.811Z,100477.00
2019-02-28T18:03:06.389Z,100493.00
2019-02-28T18:06:26.314Z,100480.00
2019-02-28T18:09:09.549Z,100481.00
2019-02-28T18:12:46.282Z,100493.00
2019-02-28T18:15:49.003Z,100496.00
2019-02-28T18:19:33.121Z,100487.00
2019-02-28T18:22:52.830Z,100495.00
2019-02-28T18:26:00.364Z,100489.00
2019-02-28T18:29:05.257Z,100499.00
2019-02-28T18:31:33.508Z,100504.00
2019-02-28T18:34:08.411Z,100507.00
2019-02-28T18:36:36.554Z,100509.00
2019-02-28T18:39:11.660Z,100499.00
2019-02-28T18:41:38.891Z,100493.00
2019-02-28T18:44:08.439Z,100488.00
2019-02-28T18:46:36.536Z,100495.00
2019-02-28T18:49:04.649Z,100505.00
2019-02-28T18:51:32.746Z,100509.00
2019-02-28T18:54:00.983Z,100519.00
2019-02-28T18:56:29.169Z,100513.00
2019-02-28T18:58:57.445Z,100491.00
2019-02-28T19:01:25.599Z,100491.00
2019-02-28T19:03:53.876Z,100502.00
2019-02-28T19:06:22.179Z,100497.00
2019-02-28T19:08:50.569Z,100498.00
2019-02-28T19:11:19.026Z,100485.00
2019-02-28T19:13:47.251Z,100487.00
2019-02-28T19:16:15.558Z,100490.00
2019-02-28T19:18:43.956Z,100484.00
2019-02-28T19:21:12.153Z,100483.00
2019-02-28T19:23:40.904Z,100479.00
2019-02-28T19:26:09.840Z,100471.00
2019-02-28T19:28:38.168Z,100482.00
2019-02-28T19:31:06.505Z,100480.00
2019-02-28T19:33:35.044Z,100479.00
2019-02-28T19:36:03.110Z,100483.00
2019-02-28T19:38:31.438Z,100488.00
2019-02-28T19:40:59.511Z,100498.00
2019-02-28T19:43:27.837Z,100497.00
2019-02-28T19:45:56.473Z,100499.00
2019-02-28T19:48:24.805Z,100497.00
2019-02-28T19:50:52.955Z,100492.00
2019-02-28T19:53:21.188Z,100487.00
2019-02-28T19:55:49.269Z,100480.00
2019-02-28T19:58:17.469Z,100477.00
2019-02-28T20:00:45.721Z,100488.00
2019-02-28T20:03:14.184Z,100481.00
2019-02-28T20:05:42.578Z,100470.00
2019-02-28T20:08:10.891Z,100479.00
2019-02-28T20:10:39.076Z,100452.00
2019-02-28T20:13:07.395Z,100481.00
2019-02-28T20:15:37.383Z,100484.00
2019-02-28T20:18:05.761Z,100477.00
2019-02-28T20:20:35.457Z,100478.00
2019-02-28T20:23:03.791Z,100476.00
2019-02-28T20:25:33.226Z,100473.00
2019-02-28T20:28:03.866Z,100466.00
2019-02-28T20:30:32.426Z,100470.00
2019-02-28T20:33:00.619Z,100469.00
2019-02-28T20:35:28.803Z,100464.00
2019-02-28T20:37:57.297Z,100465.00
2019-02-28T20:40:26.920Z,100457.00
2019-02-28T20:42:55.175Z,100465.00
2019-02-28T20:45:23.572Z,100455.00
2019-02-28T20:47:51.818Z,100464.00
2019-02-28T20:50:27.684Z,100460.00
2019-02-28T20:52:55.930Z,100445.00
2019-02-28T20:55:24.693Z,100450.00
2019-02-28T20:57:53.416Z,100444.00
2019-02-28T21:00:23.995Z,100459.00
2019-02-28T21:02:52.891Z,100452.00
2019-02-28T21:05:21.024Z,100449.00
2019-02-28T21:07:50.876Z,100450.00
2019-02-28T21:10:19.153Z,100448.00
2019-02-28T21:12:47.415Z,100445.00
2019-02-28T21:15:15.765Z,100450.00
2019-02-28T21:17:44.070Z,100453.00
2019-02-28T21:20:12.470Z,100456.00
2019-02-28T21:22:41.843Z,100453.00
2019-02-28T21:25:10.844Z,100443.00
2019-02-28T21:27:39.119Z,100440.00
2019-02-28T21:30:17.594Z,100359.00
2019-02-28T21:32:46.042Z,100440.00
2019-02-28T21:35:16.114Z,100435.00
2019-02-28T21:37:45.833Z,100426.00
2019-02-28T21:40:15.433Z,100429.00
2019-02-28T21:42:43.758Z,100432.00
2019-02-28T21:45:15.594Z,100432.00
2019-02-28T21:47:43.988Z,100431.00
2019-02-28T21:50:13.149Z,100434.00
2019-02-28T21:52:42.266Z,100436.00
2019-02-28T21:55:11.468Z,100423.00
2019-02-28T21:57:39.655Z,100419.00
2019-02-28T22:00:15.623Z,100407.00
2019-02-28T22:02:46.226Z,100421.00
2019-02-28T22:05:14.402Z,100414.00
2019-02-28T22:07:44.441Z,100407.00
2019-02-28T22:10:12.820Z,100411.00
2019-02-28T22:12:41.061Z,100404.00
2019-02-28T22:15:12.407Z,100394.00
2019-02-28T22:17:40.562Z,100406.00
2019-02-28T22:20:10.330Z,100398.00
2019-02-28T22:22:38.361Z,100394.00
2019-02-28T22:25:07.220Z,100389.00
2019-02-28T22:27:35.296Z,100401.00
2019-02-28T22:30:24.016Z,100385.00
2019-02-28T22:32:54.022Z,100382.00
2019-02-28T22:35:26.613Z,100376.00
2019-02-28T22:37:54.897Z,100378.00
2019-02-28T22:40:23.065Z,100365.00
2019-02-28T22:42:51.236Z,100357.00
2019-02-28T22:45:19.290Z,100350.00
2019-02-28T22:47:47.421Z,100341.00
2019-02-28T22:50:15.607Z,100347.00
2019-02-28T22:52:43.586Z,100353.00
2019-02-28T22:55:12.625Z,100352.00
2019-02-28T22:57:40.579Z,100346.00
2019-02-28T23:00:51.565Z,100340.00
2019-02-28T23:03:20.054Z,100339.00
2019-02-28T23:05:48.035Z,100340.00
2019-02-28T23:08:16.605Z,100333.00
2019-02-28T23:10:44.657Z,100335.00
2019-02-28T23:13:12.962Z,100332.00
2019-02-28T23:15:40.997Z,100335.00
2019-02-28T23:18:08.972Z,100318.00
2019-02-28T23:20:36.915Z,100318.00
2019-02-28T23:23:05.151Z,100317.00
2019-02-28T23:25:34.460Z,100310.00
2019-02-28T23:28:12.257Z,100308.00
2019-02-28T23:31:22.232Z,100304.00
2019-02-28T23:33:50.396Z,100304.00
2019-02-28T23:36:18.453Z,100297.00
2019-02-28T23:38:46.378Z,100293.00
2019-02-28T23:41:14.349Z,100297.00
2019-02-28T23:43:42.458Z,100300.00
2019-02-28T23:46:10.772Z,100300.00
2019-02-28T23:48:38.761Z,100291.00
2019-02-28T23:51:06.771Z,100291.00
2019-02-28T23:53:34.795Z,100287.00
2019-02-28T23:56:03.236Z,100278.00
2019-02-28T23:58:31.268Z,100281.00
